createdAt,value
2018-03-19T00:00:55.862Z,46.10
2018-03-19T00:03:24.215Z,46.20
2018-03-19T00:05:52.502Z,46.40
2018-03-19T00:08:21.076Z,46.60
2018-03-19T00:10:49.679Z,46.60
2018-03-19T00:13:17.995Z,46.60
2018-03-19T00:15:46.282Z,46.90
2018-03-19T00:18:14.602Z,46.70
2018-03-19T00:20:42.878Z,46.60
2018-03-19T00:23:11.371Z,47.10
2018-03-19T00:25:39.654Z,47.30
2018-03-19T00:28:08.011Z,47.80
2018-03-19T00:30:36.359Z,48.60
2018-03-19T00:33:04.882Z,48.40
2018-03-19T00:35:33.762Z,47.90
2018-03-19T00:38:02.285Z,49.00
2018-03-19T00:40:31.672Z,48.60
2018-03-19T00:43:00.814Z,48.80
2018-03-19T00:45:29.930Z,48.80
2018-03-19T00:47:59.135Z,48.90
2018-03-19T00:50:28.231Z,49.40
2018-03-19T00:52:56.656Z,49.40
2018-03-19T00:55:24.942Z,49.20
2018-03-19T00:57:53.263Z,49.30
2018-03-19T01:00:21.594Z,49.20
2018-03-19T01:02:50.684Z,49.30
2018-03-19T01:05:20.010Z,49.70
2018-03-19T01:07:48.301Z,49.70
2018-03-19T01:10:16.586Z,49.50
2018-03-19T01:12:44.906Z,49.50
2018-03-19T01:15:13.195Z,49.70
2018-03-19T01:17:41.515Z,49.70
2018-03-19T01:20:09.835Z,49.80
2018-03-19T01:22:38.154Z,49.90
2018-03-19T01:25:06.504Z,49.90
2018-03-19T01:27:34.903Z,49.80
2018-03-19T01:30:03.414Z,49.90
2018-03-19T01:32:32.027Z,49.40
2018-03-19T01:35:00.632Z,49.70
2018-03-19T01:37:29.775Z,49.60
2018-03-19T01:39:58.115Z,49.60
2018-03-19T01:42:27.171Z,50.40
2018-03-19T01:44:55.495Z,50.40
2018-03-19T01:47:23.830Z,50.40
2018-03-19T01:49:52.155Z,50.70
2018-03-19T01:55:14.202Z,51.20
2018-03-19T01:57:42.527Z,51.10
2018-03-19T02:02:45.483Z,51.20
2018-03-19T02:05:13.811Z,51.90
2018-03-19T02:07:42.882Z,52.50
2018-03-19T02:10:11.283Z,52.50
2018-03-19T02:12:39.598Z,52.90
2018-03-19T02:15:07.891Z,53.40
2018-03-19T02:17:36.398Z,53.30
2018-03-19T02:20:04.896Z,53.80
2018-03-19T02:22:33.799Z,53.80
2018-03-19T02:25:02.598Z,54.00
2018-03-19T02:27:31.106Z,54.40
2018-03-19T02:29:59.427Z,54.00
2018-03-19T02:32:27.747Z,53.70
2018-03-19T02:34:56.156Z,53.80
2018-03-19T02:37:24.455Z,54.00
2018-03-19T02:39:53.208Z,54.10
2018-03-19T02:42:22.584Z,53.60
2018-03-19T02:44:50.874Z,53.60
2018-03-19T02:47:19.192Z,53.40
2018-03-19T02:49:47.495Z,53.80
2018-03-19T02:52:15.910Z,53.90
2018-03-19T02:54:44.191Z,54.50
2018-03-19T02:57:12.505Z,53.50
2018-03-19T02:59:40.907Z,53.40
2018-03-19T03:02:09.509Z,54.00
2018-03-19T03:04:38.426Z,53.70
2018-03-19T03:07:06.960Z,53.60
2018-03-19T03:09:37.382Z,54.00
2018-03-19T03:12:07.020Z,54.30
2018-03-19T03:14:35.924Z,54.30
2018-03-19T03:17:04.548Z,54.90
2018-03-19T03:19:32.886Z,55.00
2018-03-19T03:22:01.462Z,56.10
2018-03-19T03:24:29.843Z,55.70
2018-03-19T03:26:58.658Z,55.90
2018-03-19T03:29:26.948Z,55.70
2018-03-19T03:31:55.301Z,55.80
2018-03-19T03:34:25.090Z,57.40
2018-03-19T03:36:53.515Z,57.40
2018-03-19T03:39:22.725Z,57.70
2018-03-19T03:41:51.043Z,57.70
2018-03-19T03:44:20.183Z,57.60
2018-03-19T03:46:48.478Z,57.50
2018-03-19T03:49:16.799Z,58.10
2018-03-19T03:51:45.082Z,57.80
2018-03-19T03:54:13.393Z,58.20
2018-03-19T03:56:41.707Z,58.40
2018-03-19T03:59:10.027Z,59.10
2018-03-19T04:01:39.310Z,58.90
2018-03-19T04:04:07.700Z,58.90
2018-03-19T04:06:36.108Z,59.00
2018-03-19T04:09:04.634Z,59.30
2018-03-19T04:11:34.661Z,58.70
2018-03-19T04:14:03.862Z,59.10
2018-03-19T04:16:32.446Z,58.80
2018-03-19T04:19:00.886Z,58.70
2018-03-19T04:21:29.235Z,58.60
2018-03-19T04:23:57.517Z,58.40
2018-03-19T04:26:25.838Z,58.50
2018-03-19T04:28:54.925Z,59.50
2018-03-19T04:31:23.242Z,59.10
2018-03-19T04:33:51.776Z,58.90
2018-03-19T04:36:20.963Z,59.00
2018-03-19T04:38:49.262Z,59.00
2018-03-19T04:41:17.588Z,58.60
2018-03-19T04:43:45.901Z,58.40
2018-03-19T04:46:14.983Z,58.60
2018-03-19T04:48:43.298Z,58.30
2018-03-19T04:51:11.579Z,58.40
2018-03-19T04:53:39.892Z,58.70
2018-03-19T04:56:08.175Z,59.40
2018-03-19T04:58:36.628Z,59.30
2018-03-19T05:01:06.379Z,59.60
2018-03-19T05:03:34.994Z,59.60
2018-03-19T05:06:04.016Z,59.60
2018-03-19T05:08:32.519Z,60.00
2018-03-19T05:11:01.038Z,59.30
2018-03-19T05:13:30.670Z,58.70
2018-03-19T05:15:58.995Z,58.70
2018-03-19T05:18:27.282Z,58.70
2018-03-19T05:20:55.915Z,58.90
2018-03-19T05:23:24.718Z,59.50
2018-03-19T05:25:53.862Z,59.90
2018-03-19T05:28:22.466Z,59.80
2018-03-19T05:30:50.860Z,60.80
2018-03-19T05:33:19.210Z,60.40
2018-03-19T05:35:48.264Z,61.00
2018-03-19T05:38:16.579Z,60.90
2018-03-19T05:40:44.871Z,61.10
2018-03-19T05:43:13.193Z,61.20
2018-03-19T05:45:41.473Z,61.10
2018-03-19T05:48:09.791Z,61.10
2018-03-19T05:50:38.218Z,60.90
2018-03-19T05:53:06.594Z,60.60
2018-03-19T05:55:35.216Z,59.80
2018-03-19T05:58:04.070Z,59.20
2018-03-19T06:00:33.267Z,58.10
2018-03-19T06:03:01.903Z,58.10
2018-03-19T06:05:30.229Z,58.10
2018-03-19T06:07:58.534Z,57.40
2018-03-19T06:10:26.863Z,57.00
2018-03-19T06:12:55.187Z,56.90
2018-03-19T06:15:23.475Z,56.60
2018-03-19T06:17:51.934Z,56.50
2018-03-19T06:20:20.878Z,56.40
2018-03-19T06:22:49.210Z,56.30
2018-03-19T06:25:18.322Z,56.00
2018-03-19T06:27:46.621Z,56.00
2018-03-19T06:30:14.948Z,55.40
2018-03-19T06:32:43.230Z,55.40
2018-03-19T06:35:11.719Z,55.50
2018-03-19T06:37:39.998Z,55.60
2018-03-19T06:40:08.287Z,55.60
2018-03-19T06:42:36.649Z,55.30
2018-03-19T06:45:05.022Z,55.20
2018-03-19T06:47:34.148Z,54.40
2018-03-19T06:50:03.313Z,54.80
2018-03-19T06:52:32.498Z,54.70
2018-03-19T06:55:02.233Z,53.90
2018-03-19T06:57:30.589Z,53.90
2018-03-19T06:59:58.990Z,53.90
2018-03-19T07:02:28.042Z,54.20
2018-03-19T07:04:56.334Z,54.10
2018-03-19T07:07:24.660Z,53.20
2018-03-19T07:09:53.178Z,52.60
2018-03-19T07:12:21.522Z,52.90
2018-03-19T07:14:50.603Z,52.10
2018-03-19T07:19:53.623Z,51.60
2018-03-19T07:22:21.958Z,52.10
2018-03-19T07:24:50.343Z,52.00
2018-03-19T07:27:18.671Z,51.60
2018-03-19T07:29:47.015Z,52.60
2018-03-19T07:32:15.379Z,52.90
2018-03-19T07:34:43.764Z,52.60
2018-03-19T07:37:12.790Z,51.40
2018-03-19T07:39:41.115Z,51.30
2018-03-19T07:42:09.455Z,51.10
2018-03-19T07:44:37.779Z,49.60
2018-03-19T07:47:06.138Z,48.50
2018-03-19T07:49:35.309Z,48.90
2018-03-19T07:52:03.615Z,48.80
2018-03-19T07:54:31.962Z,48.20
2018-03-19T07:57:01.052Z,47.70
2018-03-19T07:59:29.388Z,47.70
2018-03-19T08:01:58.437Z,45.60
2018-03-19T08:04:26.764Z,45.60
2018-03-19T08:06:55.049Z,45.40
2018-03-19T08:09:23.367Z,46.10
2018-03-19T08:11:51.662Z,44.70
2018-03-19T08:14:20.010Z,44.10
2018-03-19T08:16:49.187Z,41.30
2018-03-19T08:19:17.606Z,41.30
2018-03-19T08:21:45.926Z,41.10
2018-03-19T08:24:14.215Z,40.80
2018-03-19T08:26:44.151Z,39.60
2018-03-19T08:29:12.454Z,39.60
2018-03-19T08:31:40.779Z,40.30
2018-03-19T08:34:09.067Z,38.80
2018-03-19T08:36:37.455Z,37.90
2018-03-19T08:39:05.768Z,39.30
2018-03-19T08:41:35.007Z,37.80
2018-03-19T08:44:03.541Z,37.70
2018-03-19T08:46:32.087Z,36.40
2018-03-19T08:49:00.422Z,36.30
2018-03-19T08:51:29.519Z,35.00
2018-03-19T08:53:57.917Z,35.10
2018-03-19T08:56:26.208Z,35.10
2018-03-19T08:58:54.499Z,35.00
2018-03-19T09:01:22.821Z,34.40
2018-03-19T09:03:51.111Z,33.70
2018-03-19T09:06:19.413Z,33.80
2018-03-19T09:08:47.766Z,34.10
2018-03-19T09:11:16.058Z,33.90
2018-03-19T09:13:44.407Z,32.40
2018-03-19T09:16:13.483Z,32.20
2018-03-19T09:18:41.804Z,32.20
2018-03-19T09:21:10.182Z,32.00
2018-03-19T09:23:38.583Z,31.10
2018-03-19T09:26:06.858Z,30.90
2018-03-19T09:28:35.155Z,32.40
2018-03-19T09:31:03.619Z,31.80
2018-03-19T09:33:32.091Z,31.60
2018-03-19T09:36:00.398Z,32.30
2018-03-19T09:38:28.791Z,32.40
2018-03-19T09:40:57.098Z,32.50
2018-03-19T09:43:25.374Z,31.60
2018-03-19T09:45:53.712Z,31.20
2018-03-19T09:48:22.015Z,32.00
2018-03-19T09:50:50.361Z,31.40
2018-03-19T09:53:19.468Z,29.60
2018-03-19T09:55:47.743Z,29.50
2018-03-19T09:58:16.057Z,29.30
2018-03-19T10:00:44.642Z,29.30
2018-03-19T10:03:12.918Z,28.70
2018-03-19T10:05:41.209Z,28.10
2018-03-19T10:08:09.522Z,28.30
2018-03-19T10:10:37.807Z,28.60
2018-03-19T10:13:06.131Z,27.60
2018-03-19T10:15:34.411Z,28.20
2018-03-19T10:18:02.798Z,28.60
2018-03-19T10:20:31.215Z,29.20
2018-03-19T10:22:59.551Z,28.40
2018-03-19T10:25:27.834Z,29.00
2018-03-19T10:27:56.158Z,29.50
2018-03-19T10:30:24.471Z,28.90
2018-03-19T10:32:52.755Z,27.40
2018-03-19T10:35:21.099Z,28.20
2018-03-19T10:37:49.411Z,28.50
2018-03-19T10:40:18.750Z,26.20
2018-03-19T10:42:47.081Z,26.20
2018-03-19T10:45:15.378Z,26.40
2018-03-19T10:47:43.877Z,27.00
2018-03-19T10:50:12.167Z,27.60
2018-03-19T10:52:40.451Z,26.60
2018-03-19T10:55:09.538Z,27.40
2018-03-19T10:57:37.857Z,27.40
2018-03-19T11:00:06.163Z,27.50
2018-03-19T11:02:54.367Z,27.00
2018-03-19T11:05:28.310Z,27.50
2018-03-19T11:08:02.379Z,27.50
2018-03-19T11:10:30.780Z,28.00
2018-03-19T11:13:00.311Z,27.40
2018-03-19T11:15:29.130Z,27.40
2018-03-19T11:17:57.524Z,28.50
2018-03-19T11:20:25.943Z,27.00
2018-03-19T11:22:54.254Z,27.80
2018-03-19T11:25:22.537Z,28.10
2018-03-19T11:27:50.958Z,28.10
2018-03-19T11:30:19.426Z,27.00
2018-03-19T11:32:47.848Z,28.20
2018-03-19T11:35:16.131Z,28.10
2018-03-19T11:37:44.556Z,26.90
2018-03-19T11:40:12.875Z,26.80
2018-03-19T11:42:41.167Z,26.80
2018-03-19T11:45:09.487Z,28.60
2018-03-19T11:47:37.774Z,27.40
2018-03-19T11:50:06.127Z,26.40
2018-03-19T11:52:34.794Z,26.20
2018-03-19T11:55:03.931Z,26.00
2018-03-19T11:57:32.506Z,25.90
2018-03-19T12:00:01.020Z,25.10
2018-03-19T12:02:30.147Z,25.80
2018-03-19T12:04:58.462Z,25.80
2018-03-19T12:07:26.745Z,25.30
2018-03-19T12:09:55.065Z,25.40
2018-03-19T12:12:23.347Z,26.00
2018-03-19T12:14:51.677Z,25.50
2018-03-19T12:17:20.056Z,26.60
2018-03-19T12:19:48.338Z,27.10
2018-03-19T12:22:17.511Z,24.90
2018-03-19T12:24:46.558Z,23.90
2018-03-19T12:27:14.883Z,23.90
2018-03-19T12:29:43.302Z,24.40
2018-03-19T12:32:11.597Z,24.70
2018-03-19T12:34:40.011Z,25.50
2018-03-19T12:37:08.336Z,24.40
2018-03-19T12:39:36.760Z,25.30
2018-03-19T12:42:05.884Z,24.70
2018-03-19T12:44:34.971Z,25.10
2018-03-19T12:47:04.696Z,25.80
2018-03-19T12:49:33.041Z,25.70
2018-03-19T12:52:02.180Z,26.20
2018-03-19T12:54:30.741Z,26.70
2018-03-19T12:57:00.662Z,25.90
2018-03-19T12:59:28.997Z,25.90
2018-03-19T13:01:58.051Z,23.40
2018-03-19T13:04:26.479Z,23.40
2018-03-19T13:06:54.766Z,22.80
2018-03-19T13:09:23.209Z,22.70
2018-03-19T13:11:51.568Z,24.60
2018-03-19T13:14:19.995Z,23.10
2018-03-19T13:16:48.314Z,23.50
2018-03-19T13:19:16.631Z,23.00
2018-03-19T13:21:45.016Z,24.00
2018-03-19T13:24:13.293Z,23.80
2018-03-19T13:26:42.686Z,24.40
2018-03-19T13:29:11.059Z,23.20
2018-03-19T13:31:40.694Z,24.40
2018-03-19T13:34:09.467Z,24.20
2018-03-19T13:36:39.422Z,24.40
2018-03-19T13:39:08.481Z,24.10
2018-03-19T13:41:38.698Z,25.40
2018-03-19T13:44:07.920Z,25.70
2018-03-19T13:46:37.443Z,26.20
2018-03-19T13:49:07.103Z,26.70
2018-03-19T13:51:35.902Z,27.20
2018-03-19T13:54:04.596Z,27.00
2018-03-19T13:56:33.182Z,26.80
2018-03-19T13:59:01.653Z,28.60
2018-03-19T14:01:30.029Z,27.00
2018-03-19T14:03:58.395Z,28.00
2018-03-19T14:06:26.721Z,27.80
2018-03-19T14:08:55.043Z,27.80
2018-03-19T14:11:23.616Z,26.90
2018-03-19T14:13:52.715Z,27.50
2018-03-19T14:16:21.327Z,27.40
2018-03-19T14:18:49.629Z,26.80
2018-03-19T14:21:18.043Z,27.30
2018-03-19T14:23:46.366Z,27.10
2018-03-19T14:26:14.656Z,27.00
2018-03-19T14:28:43.291Z,27.10
2018-03-19T14:31:11.582Z,26.90
2018-03-19T14:33:39.862Z,26.60
2018-03-19T14:36:08.445Z,27.70
2018-03-19T14:38:37.101Z,27.30
2018-03-19T14:41:05.483Z,27.20
2018-03-19T14:43:34.670Z,27.50
2018-03-19T14:46:03.145Z,27.50
2018-03-19T14:48:31.804Z,27.80
2018-03-19T14:51:00.183Z,27.40
2018-03-19T14:53:28.847Z,27.80
2018-03-19T14:55:57.144Z,27.30
2018-03-19T14:58:25.560Z,27.00
2018-03-19T15:00:54.084Z,27.60
2018-03-19T15:03:23.580Z,27.50
2018-03-19T15:05:52.229Z,27.40
2018-03-19T15:08:20.510Z,27.40
2018-03-19T15:10:48.882Z,27.80
2018-03-19T15:13:18.666Z,27.30
2018-03-19T15:15:46.969Z,27.20
2018-03-19T15:18:15.298Z,27.60
2018-03-19T15:20:44.345Z,27.80
2018-03-19T15:23:12.662Z,27.80
2018-03-19T15:25:40.946Z,27.60
2018-03-19T15:28:09.397Z,27.90
2018-03-19T15:30:38.034Z,27.60
2018-03-19T15:33:06.779Z,27.30
2018-03-19T15:35:35.469Z,28.40
2018-03-19T15:38:03.863Z,28.80
2018-03-19T15:40:33.376Z,27.80
2018-03-19T15:43:02.176Z,27.70
2018-03-19T15:45:32.577Z,28.30
2018-03-19T15:48:01.283Z,28.30
2018-03-19T15:50:29.776Z,27.90
2018-03-19T15:52:58.480Z,28.80
2018-03-19T15:55:26.828Z,28.60
2018-03-19T15:57:55.483Z,29.10
2018-03-19T16:00:23.782Z,28.50
2018-03-19T16:02:52.103Z,28.10
2018-03-19T16:05:20.849Z,28.70
2018-03-19T16:07:49.187Z,28.40
2018-03-19T16:10:17.515Z,28.50
2018-03-19T16:12:45.836Z,28.90
2018-03-19T16:15:14.164Z,29.10
2018-03-19T16:17:42.681Z,28.90
2018-03-19T16:20:11.003Z,28.80
2018-03-19T16:22:39.330Z,29.30
2018-03-19T16:25:07.794Z,28.80
2018-03-19T16:27:36.256Z,29.20
2018-03-19T16:30:04.814Z,29.20
2018-03-19T16:32:33.409Z,29.60
2018-03-19T16:35:02.033Z,30.00
2018-03-19T16:37:31.207Z,30.00
2018-03-19T16:39:59.635Z,29.90
2018-03-19T16:42:28.379Z,30.10
2018-03-19T16:44:56.663Z,31.40
2018-03-19T16:47:24.991Z,30.80
2018-03-19T16:49:53.512Z,30.80
2018-03-19T16:52:21.979Z,31.90
2018-03-19T16:54:50.343Z,31.90
2018-03-19T16:57:18.671Z,32.30
2018-03-19T16:59:46.955Z,31.60
2018-03-19T17:02:15.286Z,32.10
2018-03-19T17:04:43.612Z,32.00
2018-03-19T17:07:11.960Z,32.10
2018-03-19T17:09:40.611Z,32.10
2018-03-19T17:12:10.301Z,32.00
2018-03-19T17:14:39.767Z,32.60
2018-03-19T17:17:08.355Z,32.50
2018-03-19T17:19:36.717Z,32.60
2018-03-19T17:22:05.492Z,32.70
2018-03-19T17:24:34.615Z,33.90
2018-03-19T17:27:03.214Z,33.80
2018-03-19T17:29:32.647Z,36.70
2018-03-19T17:32:01.056Z,36.70
2018-03-19T17:34:29.406Z,36.20
2018-03-19T17:36:57.759Z,36.40
2018-03-19T17:39:26.083Z,38.50
2018-03-19T17:41:54.388Z,38.10
2018-03-19T17:44:22.806Z,37.70
2018-03-19T17:46:52.017Z,38.20
2018-03-19T17:49:20.659Z,38.10
2018-03-19T17:51:49.019Z,39.90
2018-03-19T17:54:17.306Z,39.90
2018-03-19T17:56:45.827Z,40.50
2018-03-19T17:59:14.111Z,41.30
2018-03-19T18:01:42.390Z,41.20
2018-03-19T18:04:11.041Z,42.80
2018-03-19T18:06:39.535Z,43.30
2018-03-19T18:09:07.945Z,42.50
2018-03-19T18:11:36.557Z,42.00
2018-03-19T18:14:05.263Z,42.20
2018-03-19T18:16:33.586Z,42.60
2018-03-19T18:19:01.990Z,42.30
2018-03-19T18:21:31.495Z,44.20
2018-03-19T18:23:59.865Z,44.10
2018-03-19T18:26:28.195Z,43.90
2018-03-19T18:28:56.494Z,44.90
2018-03-19T18:31:24.947Z,46.10
2018-03-19T18:33:54.406Z,46.50
2018-03-19T18:36:23.044Z,46.50
2018-03-19T18:38:51.438Z,47.60
2018-03-19T18:41:19.961Z,48.80
2018-03-19T18:43:49.046Z,48.70
2018-03-19T18:46:17.343Z,48.70
2018-03-19T18:48:45.691Z,48.00
2018-03-19T18:51:15.042Z,48.00
2018-03-19T18:53:43.339Z,48.00
2018-03-19T18:56:11.634Z,49.10
2018-03-19T18:58:40.132Z,49.20
2018-03-19T19:01:08.491Z,49.70
2018-03-19T19:03:37.145Z,49.10
2018-03-19T19:06:05.843Z,47.50
2018-03-19T19:08:34.575Z,47.50
2018-03-19T19:11:03.086Z,48.40
2018-03-19T19:13:31.964Z,48.90
2018-03-19T19:16:00.275Z,49.30
2018-03-19T19:18:28.691Z,49.90
2018-03-19T19:20:57.014Z,50.20
2018-03-19T19:23:26.086Z,51.20
2018-03-19T19:25:54.386Z,50.60
2018-03-19T19:28:22.790Z,51.60
2018-03-19T19:30:51.429Z,52.70
2018-03-19T19:33:19.778Z,52.50
2018-03-19T19:35:48.123Z,52.90
2018-03-19T19:38:16.646Z,52.90
2018-03-19T19:40:44.972Z,53.60
2018-03-19T19:43:13.263Z,54.00
2018-03-19T19:45:41.852Z,54.70
2018-03-19T19:48:10.146Z,53.50
2018-03-19T19:50:38.583Z,52.90
2018-03-19T19:53:07.778Z,54.00
2018-03-19T19:55:36.550Z,54.00
2018-03-19T19:58:05.189Z,54.80
2018-03-19T20:00:33.855Z,54.90
2018-03-19T20:03:03.037Z,54.20
2018-03-19T20:05:32.462Z,55.30
2018-03-19T20:08:01.456Z,55.30
2018-03-19T20:10:29.815Z,56.20
2018-03-19T20:12:58.149Z,56.10
2018-03-19T20:15:26.584Z,56.10
2018-03-19T20:17:54.938Z,55.60
2018-03-19T20:20:24.266Z,56.10
2018-03-19T20:22:53.442Z,56.50
2018-03-19T20:25:23.262Z,56.50
2018-03-19T20:27:52.656Z,56.30
2018-03-19T20:30:21.869Z,56.00
2018-03-19T20:32:50.207Z,56.00
2018-03-19T20:35:18.543Z,56.20
2018-03-19T20:37:46.842Z,56.90
2018-03-19T20:40:15.128Z,57.80
2018-03-19T20:42:43.441Z,58.70
2018-03-19T20:45:11.762Z,60.90
2018-03-19T20:47:40.329Z,61.40
2018-03-19T20:50:08.852Z,62.80
2018-03-19T20:52:38.517Z,63.30
2018-03-19T20:55:06.935Z,64.40
2018-03-19T20:57:35.366Z,63.50
2018-03-19T21:00:04.298Z,63.80
2018-03-19T21:02:32.716Z,63.70
2018-03-19T21:05:01.200Z,64.10
2018-03-19T21:07:29.554Z,64.20
2018-03-19T21:09:57.878Z,63.50
2018-03-19T21:12:26.967Z,60.60
2018-03-19T21:14:55.363Z,60.50
2018-03-19T21:17:23.651Z,58.40
2018-03-19T21:19:52.044Z,58.90
2018-03-19T21:22:20.459Z,58.40
2018-03-19T21:24:48.918Z,58.10
2018-03-19T21:27:17.979Z,60.70
2018-03-19T21:29:46.276Z,60.70
2018-03-19T21:32:14.606Z,60.30
2018-03-19T21:34:43.007Z,59.80
2018-03-19T21:37:11.297Z,59.90
2018-03-19T21:39:39.583Z,59.50
2018-03-19T21:42:08.747Z,59.80
2018-03-19T21:44:37.187Z,59.80
2018-03-19T21:47:05.708Z,59.70
2018-03-19T21:49:34.096Z,60.10
2018-03-19T21:52:02.642Z,60.20
2018-03-19T21:54:31.252Z,59.20
2018-03-19T21:56:59.543Z,58.30
2018-03-19T21:59:29.082Z,57.30
2018-03-19T22:01:57.407Z,57.30
2018-03-19T22:04:25.735Z,58.30
2018-03-19T22:06:54.826Z,61.60
2018-03-19T22:09:23.151Z,61.60
2018-03-19T22:11:51.721Z,61.50
2018-03-19T22:14:20.346Z,62.10
2018-03-19T22:16:49.560Z,61.30
2018-03-19T22:19:18.171Z,61.30
2018-03-19T22:21:46.470Z,61.10
2018-03-19T22:24:14.766Z,60.10
2018-03-19T22:26:43.099Z,59.40
2018-03-19T22:29:11.396Z,59.70
2018-03-19T22:31:39.718Z,60.30
2018-03-19T22:34:08.874Z,60.80
2018-03-19T22:36:37.171Z,60.80
2018-03-19T22:39:05.720Z,61.40
2018-03-19T22:41:34.909Z,61.20
2018-03-19T22:44:03.411Z,61.20
2018-03-19T22:46:32.145Z,61.10
2018-03-19T22:49:01.378Z,61.50
2018-03-19T22:51:30.523Z,61.50
2018-03-19T22:53:58.902Z,61.50
2018-03-19T22:56:28.011Z,61.10
2018-03-19T22:58:56.347Z,60.90
2018-03-19T23:01:24.646Z,61.80
2018-03-19T23:03:53.235Z,61.00
2018-03-19T23:06:21.740Z,61.50
2018-03-19T23:08:50.386Z,60.00
2018-03-19T23:11:18.742Z,59.50
2018-03-19T23:13:47.026Z,59.60
2018-03-19T23:16:15.343Z,60.20
2018-03-19T23:18:43.636Z,60.90
2018-03-19T23:21:11.955Z,61.30
2018-03-19T23:23:40.283Z,61.50
2018-03-19T23:26:10.082Z,62.40
2018-03-19T23:28:38.379Z,62.40
2018-03-19T23:31:06.775Z,62.60
2018-03-19T23:33:35.310Z,62.60
2018-03-19T23:36:03.886Z,62.90
2018-03-19T23:38:33.144Z,63.80
2018-03-19T23:41:01.548Z,63.20
2018-03-19T23:43:31.059Z,63.60
2018-03-19T23:46:00.219Z,64.90
2018-03-19T23:48:28.514Z,64.10
2018-03-19T23:50:56.843Z,64.50
2018-03-19T23:53:25.894Z,65.10
2018-03-19T23:55:54.174Z,65.00
2018-03-19T23:58:23.269Z,64.40
